Rayne, LA (70578)

8:30 PM CDT on March 22, 2017 (GMT -0500)
Oaktree Lane | | Change Station

Elev 28 ft 30.27 °N, 92.26 °W | Updated 5 seconds ago

Clear
Clear
68.8 °F
Feels Like 68.8 °F
N
0.0
Wind Variable Wind from NNE
Gusts 1.0 mph

Today
High -- | Low -- °F
--% Chance of Precip.
Yesterday
High -- | Low -- °F
Precip. -- in
Pressure 30.14 in
Visibility 10.0 miles
Clouds Clear
Dew Point 63 °F
Humidity 82%
Rainfall 0.01 in
Snow Depth Not available.
7:10 AM 7:21 PM
Waning Crescent, 28% visible
METAR KLFT 230053Z 23003KT 10SM CLR 25/14 A3014 RMK AO2 SLP204 T02500144
Pressure 30.14 in
Visibility 10.0 miles
Clouds Clear
Dew Point 63 °F
Humidity 82%
Rainfall 0.01 in
Snow Depth Not available.
7:10 AM 7:21 PM
Waning Crescent, 28% visible
METAR KLFT 230053Z 23003KT 10SM CLR 25/14 A3014 RMK AO2 SLP204 T02500144

Get Severe Weather Alerts

Thanks for signing up!

Be on the lookout for a verification email in your inbox.

You'll start receiving the daily forecast at 8 AM.

×

10-Day Weather Forecast

Almanac

Astronomy

Mar. 22, 2017 Rise Set
Actual Time
Civil Twilight
Nautical Twilight
Astronomical Twilight
Moon
Length of Visible Light
Length of Day
Tomorrow will be .
, % of the Moon is Illuminated

Today's Extremes

State Highs State Lows

Community

WunderPhotos

Upload Photos

1,962,540 photos uploaded!

WunderBlog® & News

Nearby

Air Quality

  Air Quality AQ Index Pollutant
Not available.

Snow Depth

Station Depth Elevation

Earthquake Activity

City Distance Mag. Time & Date
Minimum magnitude displayed is 2.5.

Earthquake Activity

City Distance Mag. Time & Date
Minimum magnitude displayed is 2.5.

Coastal Water Temperatures

Place Temperature

Stations

Nearby Weather Stations

Station Location Temp. Windchill Dew Point Humidity Wind Precip. Elev Updated Type
                   

Watches & Warnings

There are currently no watches in effect.